sensor_id;sensor_type;location;lat;lon;timestamp;P1;durP1;ratioP1;P2;durP2;ratioP2
80278;SDS011;70683;52.492;13.416;2023-08-06T00:02:20;10.80;;;7.97;;
80278;SDS011;70683;52.492;13.416;2023-08-06T00:04:46;11.00;;;8.55;;
80278;SDS011;70683;52.492;13.416;2023-08-06T00:07:13;10.82;;;8.23;;
80278;SDS011;70683;52.492;13.416;2023-08-06T00:09:39;10.30;;;8.23;;
80278;SDS011;70683;52.492;13.416;2023-08-06T00:12:06;11.28;;;8.18;;
80278;SDS011;70683;52.492;13.416;2023-08-06T00:14:33;9.38;;;7.97;;
80278;SDS011;70683;52.492;13.416;2023-08-06T00:17:00;11.00;;;7.95;;
80278;SDS011;70683;52.492;13.416;2023-08-06T00:19:26;14.23;;;7.97;;
80278;SDS011;70683;52.492;13.416;2023-08-06T00:21:53;12.93;;;8.38;;
80278;SDS011;70683;52.492;13.416;2023-08-06T00:24:20;11.38;;;8.65;;
80278;SDS011;70683;52.492;13.416;2023-08-06T00:26:46;14.13;;;7.95;;
80278;SDS011;70683;52.492;13.416;2023-08-06T00:29:13;10.15;;;7.78;;
80278;SDS011;70683;52.492;13.416;2023-08-06T00:31:39;11.50;;;8.38;;
80278;SDS011;70683;52.492;13.416;2023-08-06T00:34:06;11.75;;;9.00;;
80278;SDS011;70683;52.492;13.416;2023-08-06T00:36:33;15.03;;;9.30;;
80278;SDS011;70683;52.492;13.416;2023-08-06T00:38:59;14.65;;;9.43;;
80278;SDS011;70683;52.492;13.416;2023-08-06T00:41:26;14.43;;;9.18;;
80278;SDS011;70683;52.492;13.416;2023-08-06T00:43:53;14.80;;;9.40;;
80278;SDS011;70683;52.492;13.416;2023-08-06T00:46:19;11.75;;;9.25;;
80278;SDS011;70683;52.492;13.416;2023-08-06T00:48:47;12.07;;;8.98;;
80278;SDS011;70683;52.492;13.416;2023-08-06T00:51:14;12.03;;;9.18;;
80278;SDS011;70683;52.492;13.416;2023-08-06T00:53:41;12.68;;;8.78;;
80278;SDS011;70683;52.492;13.416;2023-08-06T00:56:09;10.53;;;8.45;;
80278;SDS011;70683;52.492;13.416;2023-08-06T00:58:36;13.03;;;9.33;;
80278;SDS011;70683;52.492;13.416;2023-08-06T01:01:04;10.63;;;9.40;;
80278;SDS011;70683;52.492;13.416;2023-08-06T01:03:31;10.38;;;8.93;;
80278;SDS011;70683;52.492;13.416;2023-08-06T01:05:58;11.03;;;9.15;;
80278;SDS011;70683;52.492;13.416;2023-08-06T01:08:30;10.38;;;8.68;;
80278;SDS011;70683;52.492;13.416;2023-08-06T01:11:14;9.50;;;8.53;;
80278;SDS011;70683;52.492;13.416;2023-08-06T01:13:59;8.90;;;7.90;;
80278;SDS011;70683;52.492;13.416;2023-08-06T01:16:37;9.15;;;7.67;;
80278;SDS011;70683;52.492;13.416;2023-08-06T01:19:15;10.60;;;7.95;;
80278;SDS011;70683;52.492;13.416;2023-08-06T01:21:40;10.20;;;8.15;;
80278;SDS011;70683;52.492;13.416;2023-08-06T01:24:06;11.20;;;8.50;;
80278;SDS011;70683;52.492;13.416;2023-08-06T01:26:36;10.13;;;8.20;;
80278;SDS011;70683;52.492;13.416;2023-08-06T01:29:10;9.43;;;8.10;;
80278;SDS011;70683;52.492;13.416;2023-08-06T01:31:43;10.63;;;8.45;;
80278;SDS011;70683;52.492;13.416;2023-08-06T01:34:13;9.98;;;8.15;;
80278;SDS011;70683;52.492;13.416;2023-08-06T01:36:46;9.95;;;8.05;;
80278;SDS011;70683;52.492;13.416;2023-08-06T01:39:14;10.98;;;8.13;;
80278;SDS011;70683;52.492;13.416;2023-08-06T01:41:40;8.28;;;7.37;;
80278;SDS011;70683;52.492;13.416;2023-08-06T01:44:07;10.65;;;8.78;;
80278;SDS011;70683;52.492;13.416;2023-08-06T01:46:34;31.48;;;21.75;;
80278;SDS011;70683;52.492;13.416;2023-08-06T01:49:00;14.58;;;11.15;;
80278;SDS011;70683;52.492;13.416;2023-08-06T01:51:27;11.12;;;9.28;;
80278;SDS011;70683;52.492;13.416;2023-08-06T01:53:53;10.18;;;9.08;;
80278;SDS011;70683;52.492;13.416;2023-08-06T01:56:20;11.88;;;9.08;;
80278;SDS011;70683;52.492;13.416;2023-08-06T01:58:47;11.65;;;9.28;;
80278;SDS011;70683;52.492;13.416;2023-08-06T02:01:13;15.08;;;11.90;;
80278;SDS011;70683;52.492;13.416;2023-08-06T02:03:40;12.18;;;10.60;;
80278;SDS011;70683;52.492;13.416;2023-08-06T02:06:06;11.80;;;10.60;;
80278;SDS011;70683;52.492;13.416;2023-08-06T02:08:33;15.72;;;10.63;;
80278;SDS011;70683;52.492;13.416;2023-08-06T02:11:00;11.25;;;10.15;;
80278;SDS011;70683;52.492;13.416;2023-08-06T02:13:28;18.35;;;10.50;;
80278;SDS011;70683;52.492;13.416;2023-08-06T02:15:55;12.07;;;10.68;;
80278;SDS011;70683;52.492;13.416;2023-08-06T02:18:21;15.32;;;11.35;;
80278;SDS011;70683;52.492;13.416;2023-08-06T02:23:23;12.95;;;10.58;;
80278;SDS011;70683;52.492;13.416;2023-08-06T02:25:56;12.98;;;10.82;;
80278;SDS011;70683;52.492;13.416;2023-08-06T02:28:26;11.85;;;10.65;;
80278;SDS011;70683;52.492;13.416;2023-08-06T02:30:52;13.90;;;11.65;;
80278;SDS011;70683;52.492;13.416;2023-08-06T02:33:19;12.58;;;11.12;;
80278;SDS011;70683;52.492;13.416;2023-08-06T02:35:46;16.40;;;12.45;;
80278;SDS011;70683;52.492;13.416;2023-08-06T02:38:12;13.35;;;11.93;;
80278;SDS011;70683;52.492;13.416;2023-08-06T02:40:42;14.83;;;13.13;;
80278;SDS011;70683;52.492;13.416;2023-08-06T02:45:37;12.82;;;11.50;;
80278;SDS011;70683;52.492;13.416;2023-08-06T02:48:04;14.93;;;11.83;;
80278;SDS011;70683;52.492;13.416;2023-08-06T02:50:37;15.23;;;12.47;;
80278;SDS011;70683;52.492;13.416;2023-08-06T02:53:05;14.95;;;11.18;;
80278;SDS011;70683;52.492;13.416;2023-08-06T02:55:32;15.75;;;10.53;;
80278;SDS011;70683;52.492;13.416;2023-08-06T02:58:00;12.88;;;11.12;;
80278;SDS011;70683;52.492;13.416;2023-08-06T03:00:27;13.43;;;10.53;;
80278;SDS011;70683;52.492;13.416;2023-08-06T03:02:53;13.60;;;11.30;;
80278;SDS011;70683;52.492;13.416;2023-08-06T03:05:20;15.03;;;9.95;;
80278;SDS011;70683;52.492;13.416;2023-08-06T03:07:47;12.35;;;9.00;;
80278;SDS011;70683;52.492;13.416;2023-08-06T03:10:14;12.63;;;9.48;;
80278;SDS011;70683;52.492;13.416;2023-08-06T03:12:40;10.23;;;9.10;;
80278;SDS011;70683;52.492;13.416;2023-08-06T03:15:07;11.85;;;9.13;;
80278;SDS011;70683;52.492;13.416;2023-08-06T03:17:34;14.53;;;9.60;;
80278;SDS011;70683;52.492;13.416;2023-08-06T03:20:01;11.90;;;8.93;;
80278;SDS011;70683;52.492;13.416;2023-08-06T03:22:27;10.63;;;8.90;;
80278;SDS011;70683;52.492;13.416;2023-08-06T03:24:54;13.38;;;9.00;;
80278;SDS011;70683;52.492;13.416;2023-08-06T03:27:21;11.15;;;8.30;;
80278;SDS011;70683;52.492;13.416;2023-08-06T03:29:49;13.48;;;8.83;;
80278;SDS011;70683;52.492;13.416;2023-08-06T03:32:16;10.65;;;8.18;;
80278;SDS011;70683;52.492;13.416;2023-08-06T03:34:43;10.08;;;8.98;;
80278;SDS011;70683;52.492;13.416;2023-08-06T03:37:10;21.10;;;14.43;;
80278;SDS011;70683;52.492;13.416;2023-08-06T03:52:08;12.33;;;9.78;;
80278;SDS011;70683;52.492;13.416;2023-08-06T03:54:35;12.45;;;9.05;;
80278;SDS011;70683;52.492;13.416;2023-08-06T03:57:02;10.88;;;9.10;;
80278;SDS011;70683;52.492;13.416;2023-08-06T03:59:29;11.03;;;9.45;;
80278;SDS011;70683;52.492;13.416;2023-08-06T04:01:55;11.50;;;10.03;;
80278;SDS011;70683;52.492;13.416;2023-08-06T04:04:22;13.80;;;8.73;;
80278;SDS011;70683;52.492;13.416;2023-08-06T04:06:48;13.72;;;9.38;;
80278;SDS011;70683;52.492;13.416;2023-08-06T04:09:15;13.28;;;9.08;;
80278;SDS011;70683;52.492;13.416;2023-08-06T04:11:42;12.47;;;8.78;;
80278;SDS011;70683;52.492;13.416;2023-08-06T04:14:08;11.95;;;9.90;;
80278;SDS011;70683;52.492;13.416;2023-08-06T04:16:35;11.65;;;9.15;;
80278;SDS011;70683;52.492;13.416;2023-08-06T04:19:01;14.23;;;10.35;;
80278;SDS011;70683;52.492;13.416;2023-08-06T04:21:28;14.03;;;9.75;;
80278;SDS011;70683;52.492;13.416;2023-08-06T04:23:55;12.35;;;9.83;;
80278;SDS011;70683;52.492;13.416;2023-08-06T04:26:22;13.55;;;10.13;;
80278;SDS011;70683;52.492;13.416;2023-08-06T04:28:49;12.82;;;9.08;;
80278;SDS011;70683;52.492;13.416;2023-08-06T04:31:15;10.55;;;9.30;;
80278;SDS011;70683;52.492;13.416;2023-08-06T04:33:42;11.95;;;8.40;;
80278;SDS011;70683;52.492;13.416;2023-08-06T04:36:09;9.78;;;8.80;;
80278;SDS011;70683;52.492;13.416;2023-08-06T04:38:35;10.03;;;8.88;;
80278;SDS011;70683;52.492;13.416;2023-08-06T04:41:02;13.65;;;9.55;;
80278;SDS011;70683;52.492;13.416;2023-08-06T04:43:30;12.47;;;9.68;;
80278;SDS011;70683;52.492;13.416;2023-08-06T04:45:56;9.55;;;8.55;;
80278;SDS011;70683;52.492;13.416;2023-08-06T04:48:23;9.90;;;8.90;;
80278;SDS011;70683;52.492;13.416;2023-08-06T04:50:50;10.25;;;8.20;;
80278;SDS011;70683;52.492;13.416;2023-08-06T04:53:17;9.50;;;8.40;;
80278;SDS011;70683;52.492;13.416;2023-08-06T04:55:43;10.15;;;9.03;;
80278;SDS011;70683;52.492;13.416;2023-08-06T04:58:10;11.60;;;8.65;;
80278;SDS011;70683;52.492;13.416;2023-08-06T05:00:36;13.50;;;8.43;;
80278;SDS011;70683;52.492;13.416;2023-08-06T05:03:03;10.48;;;9.10;;
80278;SDS011;70683;52.492;13.416;2023-08-06T05:05:30;11.05;;;8.10;;
80278;SDS011;70683;52.492;13.416;2023-08-06T05:07:57;9.58;;;8.18;;
80278;SDS011;70683;52.492;13.416;2023-08-06T05:10:24;10.18;;;8.35;;
80278;SDS011;70683;52.492;13.416;2023-08-06T05:12:51;11.68;;;8.63;;
80278;SDS011;70683;52.492;13.416;2023-08-06T05:15:18;11.30;;;9.18;;
80278;SDS011;70683;52.492;13.416;2023-08-06T05:17:45;12.37;;;7.83;;
80278;SDS011;70683;52.492;13.416;2023-08-06T05:20:12;8.63;;;7.72;;
80278;SDS011;70683;52.492;13.416;2023-08-06T05:22:39;9.65;;;7.85;;
80278;SDS011;70683;52.492;13.416;2023-08-06T05:25:05;8.90;;;7.90;;
80278;SDS011;70683;52.492;13.416;2023-08-06T05:27:49;9.55;;;7.90;;
80278;SDS011;70683;52.492;13.416;2023-08-06T05:30:16;9.70;;;7.30;;
80278;SDS011;70683;52.492;13.416;2023-08-06T05:32:42;9.93;;;7.85;;
80278;SDS011;70683;52.492;13.416;2023-08-06T05:35:09;9.33;;;7.92;;
80278;SDS011;70683;52.492;13.416;2023-08-06T05:37:36;10.40;;;8.10;;
80278;SDS011;70683;52.492;13.416;2023-08-06T05:40:02;9.95;;;7.65;;
80278;SDS011;70683;52.492;13.416;2023-08-06T05:42:30;10.90;;;7.75;;
80278;SDS011;70683;52.492;13.416;2023-08-06T05:44:57;9.70;;;7.47;;
80278;SDS011;70683;52.492;13.416;2023-08-06T05:47:24;9.65;;;7.58;;
80278;SDS011;70683;52.492;13.416;2023-08-06T05:49:50;8.58;;;7.40;;
80278;SDS011;70683;52.492;13.416;2023-08-06T05:52:17;8.95;;;7.53;;
80278;SDS011;70683;52.492;13.416;2023-08-06T05:54:44;9.95;;;8.28;;
80278;SDS011;70683;52.492;13.416;2023-08-06T05:57:10;10.70;;;7.28;;
80278;SDS011;70683;52.492;13.416;2023-08-06T05:59:37;8.73;;;7.05;;
80278;SDS011;70683;52.492;13.416;2023-08-06T06:02:04;8.88;;;6.67;;
80278;SDS011;70683;52.492;13.416;2023-08-06T06:04:30;7.20;;;6.40;;
80278;SDS011;70683;52.492;13.416;2023-08-06T06:06:57;9.00;;;5.75;;
80278;SDS011;70683;52.492;13.416;2023-08-06T06:09:23;7.95;;;6.28;;
80278;SDS011;70683;52.492;13.416;2023-08-06T06:11:50;10.15;;;6.97;;
80278;SDS011;70683;52.492;13.416;2023-08-06T06:14:17;8.78;;;6.67;;
80278;SDS011;70683;52.492;13.416;2023-08-06T06:16:44;8.55;;;6.70;;
80278;SDS011;70683;52.492;13.416;2023-08-06T06:19:11;9.18;;;6.45;;
80278;SDS011;70683;52.492;13.416;2023-08-06T06:21:38;7.95;;;6.35;;
80278;SDS011;70683;52.492;13.416;2023-08-06T06:24:06;10.00;;;6.58;;
80278;SDS011;70683;52.492;13.416;2023-08-06T06:26:34;8.00;;;6.40;;
80278;SDS011;70683;52.492;13.416;2023-08-06T06:29:00;9.55;;;7.25;;
80278;SDS011;70683;52.492;13.416;2023-08-06T06:31:27;7.78;;;6.97;;
80278;SDS011;70683;52.492;13.416;2023-08-06T06:33:54;9.90;;;7.80;;
80278;SDS011;70683;52.492;13.416;2023-08-06T06:36:21;8.68;;;7.78;;
80278;SDS011;70683;52.492;13.416;2023-08-06T06:38:49;9.35;;;8.25;;
80278;SDS011;70683;52.492;13.416;2023-08-06T06:41:15;9.60;;;8.28;;
80278;SDS011;70683;52.492;13.416;2023-08-06T06:43:43;9.50;;;7.47;;
80278;SDS011;70683;52.492;13.416;2023-08-06T06:46:11;12.43;;;10.58;;
80278;SDS011;70683;52.492;13.416;2023-08-06T06:48:38;12.35;;;9.58;;
80278;SDS011;70683;52.492;13.416;2023-08-06T06:51:04;13.08;;;8.75;;
80278;SDS011;70683;52.492;13.416;2023-08-06T06:53:31;11.57;;;9.20;;
80278;SDS011;70683;52.492;13.416;2023-08-06T06:56:01;10.98;;;8.95;;
80278;SDS011;70683;52.492;13.416;2023-08-06T06:58:30;11.88;;;9.73;;
80278;SDS011;70683;52.492;13.416;2023-08-06T07:00:57;10.95;;;9.18;;
80278;SDS011;70683;52.492;13.416;2023-08-06T07:03:24;10.60;;;8.98;;
80278;SDS011;70683;52.492;13.416;2023-08-06T07:05:50;10.58;;;9.50;;
80278;SDS011;70683;52.492;13.416;2023-08-06T07:08:17;12.50;;;10.85;;
80278;SDS011;70683;52.492;13.416;2023-08-06T07:10:44;12.65;;;9.40;;
80278;SDS011;70683;52.492;13.416;2023-08-06T07:13:10;10.63;;;9.53;;
80278;SDS011;70683;52.492;13.416;2023-08-06T07:15:37;12.05;;;10.20;;
80278;SDS011;70683;52.492;13.416;2023-08-06T07:18:04;12.15;;;10.10;;
80278;SDS011;70683;52.492;13.416;2023-08-06T07:20:30;10.65;;;9.55;;
80278;SDS011;70683;52.492;13.416;2023-08-06T07:22:58;12.13;;;10.00;;
80278;SDS011;70683;52.492;13.416;2023-08-06T07:25:25;11.88;;;9.73;;
80278;SDS011;70683;52.492;13.416;2023-08-06T07:27:52;12.40;;;8.58;;
80278;SDS011;70683;52.492;13.416;2023-08-06T07:30:19;11.53;;;9.93;;
80278;SDS011;70683;52.492;13.416;2023-08-06T07:32:46;9.85;;;7.72;;
80278;SDS011;70683;52.492;13.416;2023-08-06T07:35:12;11.40;;;8.50;;
80278;SDS011;70683;52.492;13.416;2023-08-06T07:37:40;14.90;;;8.73;;
80278;SDS011;70683;52.492;13.416;2023-08-06T07:40:07;11.05;;;8.50;;
80278;SDS011;70683;52.492;13.416;2023-08-06T07:42:34;12.35;;;8.58;;
80278;SDS011;70683;52.492;13.416;2023-08-06T07:45:01;12.40;;;7.90;;
80278;SDS011;70683;52.492;13.416;2023-08-06T07:47:29;11.65;;;7.65;;
80278;SDS011;70683;52.492;13.416;2023-08-06T07:49:55;10.45;;;8.63;;
80278;SDS011;70683;52.492;13.416;2023-08-06T07:52:22;9.38;;;8.10;;
80278;SDS011;70683;52.492;13.416;2023-08-06T07:54:49;9.10;;;7.87;;
80278;SDS011;70683;52.492;13.416;2023-08-06T07:57:16;10.88;;;8.63;;
80278;SDS011;70683;52.492;13.416;2023-08-06T07:59:43;12.25;;;8.03;;
80278;SDS011;70683;52.492;13.416;2023-08-06T08:02:09;9.18;;;8.25;;
80278;SDS011;70683;52.492;13.416;2023-08-06T08:04:36;9.50;;;8.40;;
80278;SDS011;70683;52.492;13.416;2023-08-06T08:07:03;10.30;;;8.43;;
80278;SDS011;70683;52.492;13.416;2023-08-06T08:09:30;9.25;;;8.25;;
80278;SDS011;70683;52.492;13.416;2023-08-06T08:11:57;11.33;;;8.43;;
80278;SDS011;70683;52.492;13.416;2023-08-06T08:14:25;12.28;;;8.53;;
80278;SDS011;70683;52.492;13.416;2023-08-06T08:16:52;9.95;;;8.93;;
80278;SDS011;70683;52.492;13.416;2023-08-06T08:19:19;11.65;;;8.33;;
80278;SDS011;70683;52.492;13.416;2023-08-06T08:21:46;10.25;;;7.87;;
80278;SDS011;70683;52.492;13.416;2023-08-06T08:24:13;17.85;;;8.98;;
80278;SDS011;70683;52.492;13.416;2023-08-06T08:26:40;12.00;;;8.53;;
80278;SDS011;70683;52.492;13.416;2023-08-06T08:29:06;8.98;;;8.00;;
80278;SDS011;70683;52.492;13.416;2023-08-06T08:31:33;13.83;;;8.68;;
80278;SDS011;70683;52.492;13.416;2023-08-06T08:34:01;14.90;;;8.70;;
80278;SDS011;70683;52.492;13.416;2023-08-06T08:36:28;10.75;;;9.00;;
80278;SDS011;70683;52.492;13.416;2023-08-06T08:38:55;11.48;;;8.45;;
80278;SDS011;70683;52.492;13.416;2023-08-06T08:41:22;11.83;;;9.70;;
80278;SDS011;70683;52.492;13.416;2023-08-06T08:43:49;13.90;;;10.58;;
80278;SDS011;70683;52.492;13.416;2023-08-06T08:46:17;14.45;;;10.53;;
80278;SDS011;70683;52.492;13.416;2023-08-06T08:48:45;11.73;;;9.38;;
80278;SDS011;70683;52.492;13.416;2023-08-06T08:51:12;11.20;;;10.08;;
80278;SDS011;70683;52.492;13.416;2023-08-06T08:53:39;16.07;;;10.90;;
80278;SDS011;70683;52.492;13.416;2023-08-06T08:56:07;13.53;;;10.45;;
80278;SDS011;70683;52.492;13.416;2023-08-06T08:58:35;16.02;;;10.70;;
80278;SDS011;70683;52.492;13.416;2023-08-06T09:01:01;11.93;;;10.68;;
80278;SDS011;70683;52.492;13.416;2023-08-06T09:03:29;15.00;;;11.60;;
80278;SDS011;70683;52.492;13.416;2023-08-06T09:05:57;13.78;;;11.50;;
80278;SDS011;70683;52.492;13.416;2023-08-06T09:08:27;20.32;;;10.88;;
80278;SDS011;70683;52.492;13.416;2023-08-06T09:10:55;16.00;;;11.43;;
80278;SDS011;70683;52.492;13.416;2023-08-06T09:13:22;13.58;;;11.40;;
80278;SDS011;70683;52.492;13.416;2023-08-06T09:15:49;15.20;;;12.20;;
80278;SDS011;70683;52.492;13.416;2023-08-06T09:18:24;17.95;;;11.88;;
80278;SDS011;70683;52.492;13.416;2023-08-06T09:20:48;15.33;;;12.80;;
80278;SDS011;70683;52.492;13.416;2023-08-06T09:23:15;15.85;;;13.10;;
80278;SDS011;70683;52.492;13.416;2023-08-06T09:25:41;14.15;;;12.43;;
80278;SDS011;70683;52.492;13.416;2023-08-06T09:28:08;15.32;;;13.18;;
80278;SDS011;70683;52.492;13.416;2023-08-06T09:30:36;15.70;;;12.10;;
80278;SDS011;70683;52.492;13.416;2023-08-06T09:33:08;16.82;;;13.28;;
80278;SDS011;70683;52.492;13.416;2023-08-06T09:35:37;19.62;;;12.88;;
80278;SDS011;70683;52.492;13.416;2023-08-06T09:38:05;19.40;;;12.58;;
80278;SDS011;70683;52.492;13.416;2023-08-06T09:40:33;18.52;;;13.43;;
80278;SDS011;70683;52.492;13.416;2023-08-06T09:43:00;17.60;;;14.28;;
80278;SDS011;70683;52.492;13.416;2023-08-06T09:45:30;16.07;;;12.75;;
80278;SDS011;70683;52.492;13.416;2023-08-06T09:47:59;15.40;;;12.03;;
80278;SDS011;70683;52.492;13.416;2023-08-06T09:50:30;15.30;;;13.10;;
80278;SDS011;70683;52.492;13.416;2023-08-06T09:52:59;16.35;;;12.65;;
80278;SDS011;70683;52.492;13.416;2023-08-06T09:55:26;18.40;;;13.68;;
80278;SDS011;70683;52.492;13.416;2023-08-06T09:57:53;16.87;;;14.05;;
80278;SDS011;70683;52.492;13.416;2023-08-06T10:00:21;17.77;;;14.55;;
80278;SDS011;70683;52.492;13.416;2023-08-06T10:02:49;20.68;;;11.45;;
80278;SDS011;70683;52.492;13.416;2023-08-06T10:05:18;15.65;;;13.98;;
80278;SDS011;70683;52.492;13.416;2023-08-06T10:07:45;22.35;;;12.50;;
80278;SDS011;70683;52.492;13.416;2023-08-06T10:10:13;14.10;;;12.20;;
80278;SDS011;70683;52.492;13.416;2023-08-06T10:12:41;14.35;;;12.82;;
80278;SDS011;70683;52.492;13.416;2023-08-06T10:17:39;21.65;;;12.53;;
80278;SDS011;70683;52.492;13.416;2023-08-06T10:20:08;15.85;;;12.73;;
80278;SDS011;70683;52.492;13.416;2023-08-06T10:22:35;14.15;;;12.65;;
80278;SDS011;70683;52.492;13.416;2023-08-06T10:25:02;14.95;;;13.30;;
80278;SDS011;70683;52.492;13.416;2023-08-06T10:27:33;15.03;;;13.43;;
80278;SDS011;70683;52.492;13.416;2023-08-06T10:32:46;18.40;;;15.80;;
80278;SDS011;70683;52.492;13.416;2023-08-06T10:37:53;19.90;;;15.70;;
80278;SDS011;70683;52.492;13.416;2023-08-06T10:40:21;12.00;;;10.65;;
80278;SDS011;70683;52.492;13.416;2023-08-06T10:42:49;16.90;;;12.82;;
80278;SDS011;70683;52.492;13.416;2023-08-06T10:45:16;18.07;;;15.50;;
80278;SDS011;70683;52.492;13.416;2023-08-06T10:47:45;16.77;;;14.98;;
80278;SDS011;70683;52.492;13.416;2023-08-06T10:50:13;19.20;;;15.00;;
80278;SDS011;70683;52.492;13.416;2023-08-06T10:52:43;16.60;;;14.53;;
80278;SDS011;70683;52.492;13.416;2023-08-06T10:55:10;16.55;;;13.62;;
80278;SDS011;70683;52.492;13.416;2023-08-06T10:57:37;16.73;;;12.18;;
80278;SDS011;70683;52.492;13.416;2023-08-06T11:00:05;16.45;;;13.28;;
80278;SDS011;70683;52.492;13.416;2023-08-06T11:02:34;15.30;;;12.07;;
80278;SDS011;70683;52.492;13.416;2023-08-06T11:05:06;12.00;;;10.30;;
80278;SDS011;70683;52.492;13.416;2023-08-06T11:07:35;12.80;;;11.20;;
80278;SDS011;70683;52.492;13.416;2023-08-06T11:10:03;14.30;;;11.75;;
80278;SDS011;70683;52.492;13.416;2023-08-06T11:12:32;12.23;;;10.93;;
80278;SDS011;70683;52.492;13.416;2023-08-06T11:15:00;13.48;;;11.53;;
80278;SDS011;70683;52.492;13.416;2023-08-06T11:17:28;14.65;;;11.95;;
80278;SDS011;70683;52.492;13.416;2023-08-06T11:19:55;16.07;;;12.73;;
80278;SDS011;70683;52.492;13.416;2023-08-06T11:22:24;15.25;;;12.07;;
80278;SDS011;70683;52.492;13.416;2023-08-06T11:24:52;13.28;;;11.90;;
80278;SDS011;70683;52.492;13.416;2023-08-06T11:27:19;16.42;;;12.82;;
80278;SDS011;70683;52.492;13.416;2023-08-06T11:29:46;13.65;;;12.07;;
80278;SDS011;70683;52.492;13.416;2023-08-06T11:32:13;13.68;;;11.70;;
80278;SDS011;70683;52.492;13.416;2023-08-06T11:34:39;10.45;;;9.38;;
80278;SDS011;70683;52.492;13.416;2023-08-06T11:37:07;10.50;;;8.60;;
80278;SDS011;70683;52.492;13.416;2023-08-06T11:39:34;10.80;;;9.73;;
80278;SDS011;70683;52.492;13.416;2023-08-06T11:42:03;13.30;;;10.78;;
80278;SDS011;70683;52.492;13.416;2023-08-06T11:44:31;10.90;;;9.80;;
80278;SDS011;70683;52.492;13.416;2023-08-06T11:46:59;12.88;;;10.23;;
80278;SDS011;70683;52.492;13.416;2023-08-06T11:52:08;10.93;;;8.38;;
80278;SDS011;70683;52.492;13.416;2023-08-06T11:54:37;11.57;;;9.20;;
80278;SDS011;70683;52.492;13.416;2023-08-06T11:57:05;12.23;;;9.43;;
80278;SDS011;70683;52.492;13.416;2023-08-06T11:59:32;9.90;;;8.48;;
80278;SDS011;70683;52.492;13.416;2023-08-06T12:02:01;12.55;;;9.88;;
80278;SDS011;70683;52.492;13.416;2023-08-06T12:04:31;14.93;;;10.23;;
80278;SDS011;70683;52.492;13.416;2023-08-06T12:07:05;13.13;;;8.75;;
80278;SDS011;70683;52.492;13.416;2023-08-06T12:09:34;12.85;;;10.23;;
80278;SDS011;70683;52.492;13.416;2023-08-06T12:12:01;11.88;;;8.50;;
80278;SDS011;70683;52.492;13.416;2023-08-06T12:14:29;10.80;;;9.63;;
80278;SDS011;70683;52.492;13.416;2023-08-06T12:16:56;10.20;;;9.15;;
80278;SDS011;70683;52.492;13.416;2023-08-06T12:19:22;14.28;;;9.65;;
80278;SDS011;70683;52.492;13.416;2023-08-06T12:21:49;14.13;;;11.33;;
80278;SDS011;70683;52.492;13.416;2023-08-06T12:24:15;12.40;;;11.10;;
80278;SDS011;70683;52.492;13.416;2023-08-06T12:26:42;13.13;;;11.08;;
80278;SDS011;70683;52.492;13.416;2023-08-06T12:29:08;14.10;;;11.85;;
80278;SDS011;70683;52.492;13.416;2023-08-06T12:31:35;14.63;;;11.45;;
80278;SDS011;70683;52.492;13.416;2023-08-06T12:34:02;15.10;;;11.15;;
80278;SDS011;70683;52.492;13.416;2023-08-06T12:36:28;11.93;;;10.68;;
80278;SDS011;70683;52.492;13.416;2023-08-06T12:38:55;13.32;;;11.60;;
80278;SDS011;70683;52.492;13.416;2023-08-06T12:41:22;17.82;;;12.53;;
80278;SDS011;70683;52.492;13.416;2023-08-06T12:43:48;13.13;;;11.70;;
80278;SDS011;70683;52.492;13.416;2023-08-06T12:46:15;19.42;;;12.65;;
80278;SDS011;70683;52.492;13.416;2023-08-06T12:48:41;14.28;;;11.28;;
80278;SDS011;70683;52.492;13.416;2023-08-06T12:51:08;15.35;;;12.20;;
80278;SDS011;70683;52.492;13.416;2023-08-06T12:53:35;14.80;;;12.75;;
80278;SDS011;70683;52.492;13.416;2023-08-06T12:56:01;13.22;;;11.73;;
80278;SDS011;70683;52.492;13.416;2023-08-06T12:58:28;14.25;;;11.75;;
80278;SDS011;70683;52.492;13.416;2023-08-06T13:00:54;14.10;;;10.90;;
80278;SDS011;70683;52.492;13.416;2023-08-06T13:03:22;13.53;;;12.13;;
80278;SDS011;70683;52.492;13.416;2023-08-06T13:05:49;14.40;;;11.28;;
80278;SDS011;70683;52.492;13.416;2023-08-06T13:08:15;13.30;;;11.08;;
80278;SDS011;70683;52.492;13.416;2023-08-06T13:10:43;13.83;;;11.73;;
80278;SDS011;70683;52.492;13.416;2023-08-06T13:13:09;15.08;;;11.43;;
80278;SDS011;70683;52.492;13.416;2023-08-06T13:15:36;12.65;;;11.35;;
80278;SDS011;70683;52.492;13.416;2023-08-06T13:18:02;15.15;;;10.53;;
80278;SDS011;70683;52.492;13.416;2023-08-06T13:20:30;14.13;;;10.95;;
80278;SDS011;70683;52.492;13.416;2023-08-06T13:22:58;13.88;;;10.25;;
80278;SDS011;70683;52.492;13.416;2023-08-06T13:25:26;15.05;;;10.82;;
80278;SDS011;70683;52.492;13.416;2023-08-06T13:27:54;14.73;;;11.90;;
80278;SDS011;70683;52.492;13.416;2023-08-06T13:30:20;13.25;;;10.63;;
80278;SDS011;70683;52.492;13.416;2023-08-06T13:32:48;15.75;;;10.95;;
80278;SDS011;70683;52.492;13.416;2023-08-06T13:35:15;15.25;;;10.53;;
80278;SDS011;70683;52.492;13.416;2023-08-06T13:37:41;16.05;;;11.00;;
80278;SDS011;70683;52.492;13.416;2023-08-06T13:40:08;14.73;;;11.30;;
80278;SDS011;70683;52.492;13.416;2023-08-06T13:42:36;14.53;;;11.38;;
80278;SDS011;70683;52.492;13.416;2023-08-06T13:45:03;15.55;;;11.35;;
80278;SDS011;70683;52.492;13.416;2023-08-06T13:47:30;13.25;;;10.82;;
80278;SDS011;70683;52.492;13.416;2023-08-06T13:49:57;13.78;;;11.38;;
80278;SDS011;70683;52.492;13.416;2023-08-06T13:52:25;14.93;;;11.45;;
80278;SDS011;70683;52.492;13.416;2023-08-06T13:54:52;16.48;;;12.53;;
80278;SDS011;70683;52.492;13.416;2023-08-06T13:57:19;16.23;;;11.78;;
80278;SDS011;70683;52.492;13.416;2023-08-06T13:59:45;18.55;;;11.70;;
80278;SDS011;70683;52.492;13.416;2023-08-06T14:02:12;24.02;;;12.25;;
80278;SDS011;70683;52.492;13.416;2023-08-06T14:04:39;19.12;;;12.80;;
80278;SDS011;70683;52.492;13.416;2023-08-06T14:07:05;17.20;;;12.30;;
80278;SDS011;70683;52.492;13.416;2023-08-06T14:09:32;16.87;;;12.35;;
80278;SDS011;70683;52.492;13.416;2023-08-06T14:12:00;18.77;;;13.00;;
80278;SDS011;70683;52.492;13.416;2023-08-06T14:14:26;17.32;;;12.95;;
80278;SDS011;70683;52.492;13.416;2023-08-06T14:16:53;17.65;;;12.73;;
80278;SDS011;70683;52.492;13.416;2023-08-06T14:19:20;17.32;;;13.78;;
80278;SDS011;70683;52.492;13.416;2023-08-06T14:21:47;20.48;;;14.40;;
80278;SDS011;70683;52.492;13.416;2023-08-06T14:24:13;18.32;;;12.23;;
80278;SDS011;70683;52.492;13.416;2023-08-06T14:26:40;17.17;;;13.40;;
80278;SDS011;70683;52.492;13.416;2023-08-06T14:29:06;17.92;;;13.53;;
80278;SDS011;70683;52.492;13.416;2023-08-06T14:31:33;16.15;;;12.23;;
80278;SDS011;70683;52.492;13.416;2023-08-06T14:34:00;19.20;;;11.85;;
80278;SDS011;70683;52.492;13.416;2023-08-06T14:36:27;17.40;;;11.20;;
80278;SDS011;70683;52.492;13.416;2023-08-06T14:38:54;16.07;;;8.90;;
80278;SDS011;70683;52.492;13.416;2023-08-06T14:41:20;13.25;;;9.53;;
80278;SDS011;70683;52.492;13.416;2023-08-06T14:43:47;13.95;;;10.23;;
80278;SDS011;70683;52.492;13.416;2023-08-06T14:46:14;14.93;;;10.18;;
80278;SDS011;70683;52.492;13.416;2023-08-06T14:48:40;13.05;;;9.70;;